Главная страница
METAR-TAF:

METAR-TAF

Аэропорты :

Линчёпинг, Швеция

широта: 58-24N, долгота: 015-41E, высота над уровнем моря: 52 м

Текущие метеонаблюдения

Эта сводка был подготовлена 38 минут назад, в 23:20 UTC
Ветер 1 Узел от восточный
Температура -1°C
Влажность 100%
Давление 1015 hPa
Видимость: 3200 м
небольшой снег

METAR: ESSL 162320Z AUTO 08001KT 3200 -SN FEW007/// OVC023/// M01/M01 Q1015

Время: 00:58 (23:58 UTC)

Прогноз

Эта сводка был подготовлена 3 часа и 28 минут назад, в 20:30 UTC
Прогноз действительный с 16-го 21 UTC до 16-го 23 UTC
Ветер 6 Узел от восточный
Видимость: 5000 м
на высоте 2500 фута
небольшой снег
временами
С 16-го 21 UTC до 16-го 23 UTC
Видимость: 1400 м
Сплошная облачность на высоте 400 фута
снег

TAF: ESSL 162030Z 1621/1623 09006KT 5000 -SN VV025 TEMPO 1621/1623 1400 SN OVC004

Метеонаблюдения и прогнозы для более 4000 аэропортов (сводки METAR и TAF).

Имеющиеся станции представлены на карте желтыми и красными точками.

Чтобы увидеть название станции, наведите на нее мышь.

Затем щелкните, чтобы увидеть метеонаблюдения и метеопрогнозы.

Управление картой: чтобы увеличить масштаб, щелкните зеленые кнопки с черным крестиком; чтобы уменьшить масштаб, щелкните зеленую кнопку с тире; для просмотра соседних карт щелкайте зеленые стрелки.


METAR-TAF: